Time;durP1;ratioP1;P1;durP2;ratioP2;P2;SDS_P1;SDS_P2;PMS_P1;PMS_P2;Temp;Humidity;BMP_temperature;BMP_pressure;BME280_temperature;BME280_humidity;BME280_pressure;Samples;Min_cycle;Max_cycle;Signal;HPM_P1;HPM_P2
2021/08/03 00:00:14;;;;;;;8.53;5.50;;;13.10;99.90;;;;;;5013932;28;20791;-71
2021/08/03 00:02:46;;;;;;;5.77;4.77;;;13.10;99.90;;;;;;5013592;28;20393;-71
2021/08/03 00:05:17;;;;;;;6.80;4.90;;;13.10;99.90;;;;;;5013531;28;20224;-71
2021/08/03 00:07:47;;;;;;;5.37;4.77;;;13.10;99.90;;;;;;5013675;28;20429;-71
2021/08/03 00:10:17;;;;;;;5.23;4.73;;;13.10;99.90;;;;;;5013344;28;20478;-71
2021/08/03 00:12:48;;;;;;;4.40;3.93;;;13.10;99.90;;;;;;5013418;28;20400;-71
2021/08/03 00:15:19;;;;;;;5.00;4.50;;;13.10;99.90;;;;;;5004266;28;20476;-71
2021/08/03 00:17:45;;;;;;;5.03;4.53;;;13.10;99.90;;;;;;5007328;28;20416;-71
2021/08/03 00:20:10;;;;;;;5.60;4.70;;;13.00;99.90;;;;;;5013134;28;20415;-71
2021/08/03 00:22:37;;;;;;;5.20;4.70;;;13.00;99.90;;;;;;5013349;28;20307;-71
2021/08/03 00:25:02;;;;;;;7.40;5.27;;;13.00;99.90;;;;;;5013300;28;20572;-71
2021/08/03 00:27:28;;;;;;;6.17;5.00;;;13.00;99.90;;;;;;5013342;28;20436;-71
2021/08/03 00:29:55;;;;;;;4.43;3.63;;;13.00;99.90;;;;;;5013355;28;20537;-71
2021/08/03 00:32:21;;;;;;;5.73;4.90;;;13.00;99.90;;;;;;5012981;28;20442;-71
2021/08/03 00:34:47;;;;;;;6.40;4.57;;;12.90;99.90;;;;;;5012815;28;20786;-71
2021/08/03 00:37:14;;;;;;;5.43;4.93;;;12.90;99.90;;;;;;5012987;28;20153;-71
2021/08/03 00:39:39;;;;;;;4.63;4.23;;;12.90;99.90;;;;;;5005953;28;20201;-71
2021/08/03 00:42:06;;;;;;;5.07;4.57;;;12.80;99.90;;;;;;4993747;28;20416;-71
2021/08/03 00:44:50;;;;;;;5.80;5.03;;;12.80;99.90;;;;;;5008025;28;20174;-71
2021/08/03 00:47:17;;;;;;;6.33;4.20;;;12.80;99.90;;;;;;5013000;28;20461;-71
2021/08/03 00:49:44;;;;;;;6.50;4.70;;;12.80;99.90;;;;;;5012642;28;20954;-71
2021/08/03 00:52:11;;;;;;;5.80;5.03;;;12.80;99.90;;;;;;5012689;28;20409;-71
2021/08/03 00:54:37;;;;;;;7.53;4.90;;;12.80;99.90;;;;;;5012776;28;20884;-71
2021/08/03 00:57:04;;;;;;;7.73;4.63;;;12.70;99.90;;;;;;5013144;28;20393;-71
2021/08/03 00:59:29;;;;;;;6.20;4.80;;;12.70;99.90;;;;;;5012860;28;20530;-71
2021/08/03 01:01:56;;;;;;;6.47;5.43;;;12.70;99.90;;;;;;5012687;28;20403;-71
2021/08/03 01:04:21;;;;;;;7.50;5.13;;;12.70;99.90;;;;;;5012773;28;20523;-71
2021/08/03 01:07:00;;;;;;;5.90;4.47;;;12.70;99.90;;;;;;5012549;28;20412;-71
2021/08/03 01:14:49;;;;;;;5.50;4.60;;;12.80;99.90;;;;;;5064885;28;20521;-71
2021/08/03 01:17:43;;;;;;;7.67;5.50;;;12.70;99.90;;;;;;5049908;28;20402;-71
2021/08/03 01:20:31;;;;;;;9.07;5.27;;;12.70;99.90;;;;;;5048720;28;20403;-71
2021/08/03 01:23:22;;;;;;;6.27;5.07;;;12.70;99.90;;;;;;5037455;28;20434;-71
2021/08/03 01:28:53;;;;;;;6.07;4.47;;;12.80;99.90;;;;;;5071147;28;20513;-71
2021/08/03 01:31:25;;;;;;;9.53;4.87;;;12.80;99.90;;;;;;5069743;28;20436;-71
2021/08/03 01:34:03;;;;;;;6.90;5.40;;;12.80;99.90;;;;;;5069836;28;20394;-71
2021/08/03 01:36:29;;;;;;;5.87;4.70;;;12.80;99.90;;;;;;5069710;28;20389;-71
2021/08/03 01:38:55;;;;;;;6.10;5.23;;;12.80;99.90;;;;;;5066603;28;20413;-71
2021/08/03 01:41:24;;;;;;;6.20;4.77;;;12.80;99.90;;;;;;5069206;28;20198;-71
2021/08/03 01:43:51;;;;;;;6.23;5.53;;;12.80;99.90;;;;;;5070685;28;20417;-72
2021/08/03 01:46:18;;;;;;;7.07;5.50;;;12.80;99.90;;;;;;5069842;28;20402;-71
2021/08/03 01:48:47;;;;;;;6.73;5.50;;;12.70;99.90;;;;;;5069328;28;20457;-71
2021/08/03 01:51:14;;;;;;;5.90;4.77;;;12.70;99.90;;;;;;5069543;28;20406;-71
2021/08/03 01:53:41;;;;;;;8.63;5.70;;;12.80;99.90;;;;;;5069400;28;20394;-71
2021/08/03 01:56:08;;;;;;;6.30;5.53;;;12.80;99.90;;;;;;5064681;28;20461;-71
2021/08/03 01:58:35;;;;;;;6.73;6.03;;;12.80;99.90;;;;;;5050813;28;20441;-71
2021/08/03 02:01:01;;;;;;;5.57;4.80;;;12.80;99.90;;;;;;5049335;28;20398;-71
2021/08/03 02:03:28;;;;;;;6.77;5.60;;;12.80;99.90;;;;;;5049249;28;20442;-71
2021/08/03 02:05:56;;;;;;;5.30;4.80;;;12.80;99.90;;;;;;5049266;28;20157;-71
2021/08/03 02:08:24;;;;;;;7.27;4.93;;;12.80;99.90;;;;;;5049141;28;20439;-71
2021/08/03 02:10:50;;;;;;;5.50;5.00;;;12.80;99.90;;;;;;5049986;28;20395;-72
2021/08/03 02:13:16;;;;;;;5.83;5.23;;;12.80;99.90;;;;;;5050123;28;20481;-72
2021/08/03 02:15:43;;;;;;;4.90;4.40;;;12.80;99.90;;;;;;5049300;28;20423;-71
2021/08/03 02:18:08;;;;;;;7.13;6.50;;;12.80;99.90;;;;;;5048972;28;20904;-71
2021/08/03 02:20:34;;;;;;;5.83;5.33;;;12.80;99.90;;;;;;5048755;28;20423;-71
2021/08/03 02:23:00;;;;;;;4.70;4.30;;;12.90;99.90;;;;;;5048852;28;20234;-71
2021/08/03 02:25:27;;;;;;;6.90;5.70;;;12.90;99.90;;;;;;5054708;28;20164;-71
2021/08/03 02:27:55;;;;;;;8.57;5.47;;;12.90;99.90;;;;;;5069097;28;20237;-71
2021/08/03 02:30:21;;;;;;;5.10;4.60;;;12.90;99.90;;;;;;5061143;28;20411;-71
2021/08/03 02:35:39;;;;;;;6.53;5.77;;;12.90;99.90;;;;;;5089955;27;20722;-72
2021/08/03 02:38:11;;;;;;;5.87;5.37;;;12.90;99.90;;;;;;5090064;28;20393;-72
2021/08/03 02:40:41;;;;;;;6.17;4.47;;;13.00;99.90;;;;;;5071197;28;20504;-72
2021/08/03 02:43:07;;;;;;;8.73;4.57;;;13.00;99.90;;;;;;5073169;28;20814;-72
2021/08/03 02:45:33;;;;;;;6.17;5.43;;;13.00;99.90;;;;;;5089846;28;20427;-72
2021/08/03 02:48:10;;;;;;;7.83;5.80;;;13.00;99.90;;;;;;5077007;28;20456;-72
2021/08/03 02:50:36;;;;;;;8.60;4.97;;;13.00;99.90;;;;;;5070154;28;20441;-72
2021/08/03 02:53:08;;;;;;;5.67;5.07;;;13.00;99.90;;;;;;5069351;28;20405;-72
2021/08/03 02:55:44;;;;;;;7.43;5.03;;;13.00;99.90;;;;;;5069325;28;20417;-72
2021/08/03 02:58:16;;;;;;;6.20;5.43;;;13.00;99.90;;;;;;5069170;28;20480;-72
2021/08/03 03:00:42;;;;;;;5.17;4.50;;;13.00;99.90;;;;;;5069272;28;20444;-72
2021/08/03 03:03:15;;;;;;;6.73;5.07;;;13.00;99.90;;;;;;5069106;28;20390;-72
2021/08/03 03:05:43;;;;;;;5.90;5.03;;;13.10;99.90;;;;;;5070063;28;20410;-72
2021/08/03 03:08:15;;;;;;;7.53;5.60;;;13.10;99.90;;;;;;5069669;28;20410;-72
2021/08/03 03:10:48;;;;;;;16.50;6.03;;;13.00;99.90;;;;;;5069048;28;20478;-72
2021/08/03 03:13:20;;;;;;;8.20;6.70;;;13.00;99.90;;;;;;5069159;28;20527;-72
2021/08/03 03:15:46;;;;;;;9.23;4.77;;;13.00;99.90;;;;;;5068820;28;20421;-72
2021/08/03 03:18:13;;;;;;;7.70;5.17;;;13.00;99.90;;;;;;5069112;28;20400;-72
2021/08/03 03:20:39;;;;;;;5.67;5.13;;;13.00;99.90;;;;;;5070530;28;20410;-72
2021/08/03 03:23:06;;;;;;;5.23;4.50;;;13.00;99.90;;;;;;5088815;28;20470;-72
2021/08/03 03:25:32;;;;;;;5.47;4.97;;;13.00;99.90;;;;;;5088648;28;20420;-72
2021/08/03 03:28:01;;;;;;;6.90;5.87;;;13.00;99.90;;;;;;5088963;28;20460;-72
2021/08/03 03:30:28;;;;;;;5.87;5.27;;;13.00;99.90;;;;;;5089224;28;20173;-72
2021/08/03 03:32:55;;;;;;;5.83;5.30;;;13.00;99.90;;;;;;5078755;28;20520;-72
2021/08/03 03:35:22;;;;;;;6.00;5.50;;;13.00;99.90;;;;;;5068427;28;20862;-72
2021/08/03 03:37:51;;;;;;;6.77;6.03;;;13.00;99.90;;;;;;5068617;28;20432;-72
2021/08/03 03:40:19;;;;;;;6.37;5.77;;;13.00;99.90;;;;;;5054781;28;20779;-72
2021/08/03 03:42:47;;;;;;;6.13;5.23;;;13.00;99.90;;;;;;5068584;28;20399;-72
2021/08/03 03:45:13;;;;;;;5.70;4.90;;;13.00;99.90;;;;;;5063920;28;20406;-72
2021/08/03 03:47:46;;;;;;;7.10;6.43;;;13.00;99.90;;;;;;5055550;28;20399;-72
2021/08/03 03:50:16;;;;;;;5.73;5.23;;;12.90;99.90;;;;;;5055078;28;20439;-72
2021/08/03 03:52:49;;;;;;;6.97;5.60;;;12.90;99.90;;;;;;5054993;28;20490;-72
2021/08/03 03:55:19;;;;;;;6.60;5.83;;;12.90;99.90;;;;;;5054740;28;20462;-72
2021/08/03 03:57:46;;;;;;;6.83;6.17;;;12.90;99.90;;;;;;5054669;28;20414;-72
2021/08/03 04:00:14;;;;;;;7.13;6.53;;;12.90;99.90;;;;;;5055072;28;20468;-72
2021/08/03 04:02:42;;;;;;;7.10;6.07;;;12.90;99.90;;;;;;5054794;28;20468;-72
2021/08/03 04:05:14;;;;;;;8.00;5.90;;;13.00;99.90;;;;;;5054886;28;20486;-72
2021/08/03 04:07:41;;;;;;;7.97;6.73;;;13.00;99.90;;;;;;5055103;28;20494;-72
2021/08/03 04:10:08;;;;;;;8.30;7.43;;;12.90;99.90;;;;;;5054718;28;20425;-72
2021/08/03 04:12:34;;;;;;;7.37;6.53;;;13.00;99.90;;;;;;5054541;28;20841;-72
2021/08/03 04:15:00;;;;;;;7.60;6.90;;;12.90;99.90;;;;;;5054347;28;20454;-72
2021/08/03 04:17:26;;;;;;;7.37;6.60;;;12.90;99.90;;;;;;5054583;28;20786;-72
2021/08/03 04:19:51;;;;;;;7.00;6.30;;;12.90;99.90;;;;;;5054537;28;20173;-72
2021/08/03 04:22:17;;;;;;;8.50;6.17;;;12.90;99.90;;;;;;5054529;28;20160;-72
2021/08/03 04:24:42;;;;;;;8.13;6.43;;;12.90;99.90;;;;;;5054538;28;20632;-72
2021/08/03 04:27:08;;;;;;;6.57;5.70;;;12.90;99.90;;;;;;5054164;28;20203;-72
2021/08/03 04:29:34;;;;;;;7.20;6.57;;;12.90;99.90;;;;;;5053095;28;20588;-72
2021/08/03 04:32:00;;;;;;;7.07;6.37;;;12.90;99.90;;;;;;5052418;28;20262;-72
2021/08/03 04:34:26;;;;;;;8.70;6.27;;;13.00;99.90;;;;;;5053751;28;20501;-72
2021/08/03 04:36:51;;;;;;;7.20;6.33;;;13.00;99.90;;;;;;5053810;28;20438;-72
2021/08/03 04:39:17;;;;;;;7.53;6.70;;;13.00;99.90;;;;;;5053198;28;20180;-72
2021/08/03 04:41:42;;;;;;;8.60;7.70;;;13.10;99.90;;;;;;5051303;28;20233;-72
2021/08/03 04:44:08;;;;;;;7.23;6.10;;;13.10;99.90;;;;;;5054278;28;20257;-72
2021/08/03 04:46:34;;;;;;;9.27;7.40;;;13.10;99.90;;;;;;5053895;28;20285;-72
2021/08/03 04:49:00;;;;;;;7.63;6.90;;;13.10;99.90;;;;;;5052005;28;20540;-72
2021/08/03 04:51:26;;;;;;;7.80;6.70;;;13.10;99.90;;;;;;5051405;28;20215;-72
2021/08/03 04:53:51;;;;;;;7.50;6.70;;;13.10;99.90;;;;;;5053498;28;20462;-72
2021/08/03 04:56:17;;;;;;;9.30;7.53;;;13.10;99.90;;;;;;5053414;28;20745;-72
2021/08/03 04:58:42;;;;;;;9.40;7.77;;;13.10;99.90;;;;;;5049027;28;20176;-72
2021/08/03 05:01:08;;;;;;;8.33;7.43;;;13.10;99.90;;;;;;5051469;28;20695;-72
2021/08/03 05:03:34;;;;;;;9.50;7.97;;;13.10;99.90;;;;;;5052902;28;20180;-72
2021/08/03 05:06:00;;;;;;;13.10;7.90;;;13.10;99.90;;;;;;5052878;28;20195;-72
2021/08/03 05:08:26;;;;;;;9.33;7.13;;;13.20;99.90;;;;;;5053737;28;20403;-72
2021/08/03 05:10:51;;;;;;;8.60;7.23;;;13.20;99.90;;;;;;5050536;28;20422;-72
2021/08/03 05:13:17;;;;;;;7.73;6.97;;;13.20;99.90;;;;;;5047681;28;20192;-72
2021/08/03 05:15:42;;;;;;;8.00;6.37;;;13.30;99.90;;;;;;5053837;28;20180;-72
2021/08/03 05:18:08;;;;;;;7.43;6.20;;;13.40;99.90;;;;;;5053124;28;20176;-72
2021/08/03 05:20:33;;;;;;;9.90;7.00;;;13.40;99.90;;;;;;5052839;28;20234;-72
2021/08/03 05:22:59;;;;;;;9.43;8.30;;;13.50;99.90;;;;;;5053180;28;20521;-72
2021/08/03 05:25:25;;;;;;;8.77;7.20;;;13.50;99.90;;;;;;5052824;28;20172;-72
2021/08/03 05:27:51;;;;;;;10.77;7.63;;;13.60;99.90;;;;;;5052621;28;20180;-72
2021/08/03 05:30:16;;;;;;;8.07;6.70;;;13.60;99.90;;;;;;5053450;28;20399;-72
2021/08/03 05:32:42;;;;;;;8.37;7.57;;;13.70;99.90;;;;;;5053114;28;20214;-72
2021/08/03 05:35:08;;;;;;;8.13;7.20;;;13.70;99.90;;;;;;5053086;28;20234;-72
2021/08/03 05:37:33;;;;;;;8.17;7.20;;;13.80;99.90;;;;;;5053246;28;20176;-72
2021/08/03 05:40:02;;;;;;;10.20;8.13;;;13.90;99.90;;;;;;5053216;28;20983;-72
2021/08/03 05:42:27;;;;;;;10.53;7.80;;;13.90;99.90;;;;;;5052218;28;20180;-72
2021/08/03 05:44:53;;;;;;;11.50;7.80;;;13.90;99.90;;;;;;5052931;28;20406;-72
2021/08/03 05:47:19;;;;;;;8.80;7.90;;;14.00;99.90;;;;;;5052834;28;20188;-72
2021/08/03 05:49:44;;;;;;;13.23;7.63;;;14.10;99.90;;;;;;5052974;28;20221;-72
2021/08/03 05:52:10;;;;;;;8.33;6.43;;;14.10;99.90;;;;;;5053056;28;20519;-72
2021/08/03 05:54:35;;;;;;;10.10;6.90;;;14.10;99.90;;;;;;5053068;28;20684;-72
2021/08/03 05:57:01;;;;;;;8.73;7.03;;;14.20;99.90;;;;;;5052747;28;20187;-72
2021/08/03 05:59:26;;;;;;;6.67;5.90;;;14.20;99.90;;;;;;5052828;28;20209;-72
2021/08/03 06:01:52;;;;;;;8.93;7.87;;;14.30;99.90;;;;;;5048409;28;20513;-72
2021/08/03 06:04:18;;;;;;;6.67;6.00;;;14.30;99.90;;;;;;5052510;28;20251;-72
2021/08/03 06:06:44;;;;;;;8.10;6.67;;;14.30;99.90;;;;;;5048898;28;20180;-72
2021/08/03 06:09:11;;;;;;;6.67;5.97;;;14.40;99.90;;;;;;5051050;28;20184;-72
2021/08/03 06:11:46;;;;;;;7.53;5.70;;;14.40;99.90;;;;;;5046583;28;20430;-72
2021/08/03 06:14:12;;;;;;;7.00;5.77;;;14.40;99.90;;;;;;5046885;28;20461;-72
2021/08/03 06:16:38;;;;;;;8.90;6.37;;;14.50;99.90;;;;;;5048668;28;20551;-72
2021/08/03 06:19:10;;;;;;;6.80;5.57;;;14.50;99.90;;;;;;5044123;28;20427;-72
2021/08/03 06:21:37;;;;;;;9.03;6.57;;;14.50;99.90;;;;;;5047490;28;20512;-72
2021/08/03 06:24:04;;;;;;;5.83;5.30;;;14.50;99.90;;;;;;5051235;28;20422;-72
2021/08/03 06:26:29;;;;;;;5.50;4.97;;;14.60;99.90;;;;;;5048527;28;20475;-72
2021/08/03 06:28:55;;;;;;;5.60;4.70;;;14.50;99.90;;;;;;5048499;28;20987;-72
2021/08/03 06:31:25;;;;;;;6.90;6.20;;;14.60;99.90;;;;;;5046211;28;20183;-72
2021/08/03 06:33:50;;;;;;;6.60;5.30;;;14.60;99.90;;;;;;5049914;28;20239;-72
2021/08/03 06:36:16;;;;;;;9.37;5.60;;;14.70;99.90;;;;;;5049919;28;20470;-72
2021/08/03 06:38:41;;;;;;;5.33;4.40;;;14.70;99.90;;;;;;5050421;28;20182;-73
2021/08/03 06:41:15;;;;;;;5.57;4.97;;;14.70;99.90;;;;;;5051287;28;20164;-72
2021/08/03 06:43:51;;;;;;;7.50;4.97;;;14.80;99.90;;;;;;5052264;28;20178;-73
2021/08/03 06:46:17;;;;;;;5.93;5.07;;;14.80;99.90;;;;;;5047897;28;20924;-73
2021/08/03 06:51:30;;;;;;;5.50;5.00;;;14.90;99.90;;;;;;5073446;28;20986;-71
2021/08/03 06:53:57;;;;;;;7.53;5.07;;;14.90;99.90;;;;;;5066800;28;20438;-71
2021/08/03 06:56:25;;;;;;;7.37;5.10;;;14.90;99.90;;;;;;5065283;28;20508;-71
2021/08/03 06:58:58;;;;;;;5.67;4.60;;;14.90;99.90;;;;;;5054807;28;20439;-71
2021/08/03 07:01:35;;;;;;;8.93;5.77;;;14.90;99.90;;;;;;5054507;28;20430;-71
2021/08/03 07:04:03;;;;;;;8.03;6.30;;;15.00;99.90;;;;;;5053353;28;20442;-71
2021/08/03 07:06:31;;;;;;;5.33;4.80;;;14.90;99.90;;;;;;5067840;28;20484;-71
2021/08/03 07:08:59;;;;;;;7.33;5.20;;;15.00;99.90;;;;;;5068618;28;20856;-71
2021/08/03 07:11:28;;;;;;;5.07;4.57;;;15.00;99.90;;;;;;5055507;28;20834;-71
2021/08/03 07:13:56;;;;;;;6.93;5.30;;;15.00;99.90;;;;;;5062100;28;20923;-71
2021/08/03 07:16:22;;;;;;;6.77;5.27;;;15.00;99.90;;;;;;5053188;28;20529;-71
2021/08/03 07:18:49;;;;;;;6.83;5.17;;;15.00;99.90;;;;;;5048466;28;20932;-71
2021/08/03 07:21:16;;;;;;;5.80;5.23;;;15.00;99.90;;;;;;5055458;28;20433;-71
2021/08/03 07:23:43;;;;;;;6.33;5.13;;;15.00;99.90;;;;;;5067107;28;20544;-71
2021/08/03 07:26:09;;;;;;;8.50;5.47;;;14.90;99.90;;;;;;5052857;28;20454;-71
2021/08/03 07:28:35;;;;;;;8.50;5.90;;;14.90;99.90;;;;;;5052803;28;20431;-71
2021/08/03 07:31:00;;;;;;;9.07;5.63;;;14.90;99.90;;;;;;5066512;28;20210;-71
2021/08/03 07:33:26;;;;;;;7.10;5.37;;;15.00;99.90;;;;;;5060391;28;20185;-71
2021/08/03 07:35:52;;;;;;;8.17;5.50;;;15.00;99.90;;;;;;5054318;28;20516;-71
2021/08/03 07:38:18;;;;;;;6.83;5.70;;;15.00;99.90;;;;;;5052700;28;20206;-71
2021/08/03 07:40:43;;;;;;;5.97;5.37;;;15.10;99.90;;;;;;5057946;28;20187;-71
2021/08/03 07:43:09;;;;;;;6.67;5.27;;;15.10;99.90;;;;;;5056495;28;20238;-71
2021/08/03 07:45:37;;;;;;;7.93;5.70;;;15.10;99.90;;;;;;5056948;28;20674;-71
2021/08/03 07:48:03;;;;;;;7.30;5.60;;;15.10;99.90;;;;;;5053728;28;20229;-71
2021/08/03 07:50:29;;;;;;;10.60;5.73;;;15.10;99.90;;;;;;5059880;28;20477;-71
2021/08/03 07:52:54;;;;;;;7.57;6.00;;;15.10;99.90;;;;;;5051163;28;20442;-71
2021/08/03 07:55:20;;;;;;;6.27;5.67;;;15.10;99.90;;;;;;5047632;28;20788;-71
2021/08/03 07:57:46;;;;;;;6.10;5.37;;;15.20;99.90;;;;;;5048215;28;20197;-71
2021/08/03 08:00:14;;;;;;;5.33;4.83;;;15.30;99.90;;;;;;5054220;28;20561;-71
2021/08/03 08:02:39;;;;;;;6.47;5.70;;;15.40;99.90;;;;;;5046187;28;20181;-71
2021/08/03 08:05:05;;;;;;;9.13;6.53;;;15.50;99.90;;;;;;5044371;28;20437;-71
2021/08/03 08:07:30;;;;;;;8.20;5.23;;;15.60;99.90;;;;;;5043146;28;20180;-71
2021/08/03 08:09:56;;;;;;;6.33;5.50;;;15.70;99.90;;;;;;5035272;28;20670;-71
2021/08/03 08:12:21;;;;;;;6.57;5.57;;;15.80;99.90;;;;;;5039416;28;20188;-71
2021/08/03 08:14:47;;;;;;;8.73;6.27;;;15.90;99.90;;;;;;5043469;28;20184;-71
2021/08/03 08:17:12;;;;;;;6.10;5.50;;;16.00;99.90;;;;;;5050419;28;20188;-71
2021/08/03 08:19:38;;;;;;;6.87;5.87;;;16.00;99.90;;;;;;5046604;28;20184;-71
2021/08/03 08:22:04;;;;;;;8.30;6.03;;;16.00;99.90;;;;;;5037781;28;20180;-71
2021/08/03 08:24:30;;;;;;;9.87;5.63;;;16.00;99.90;;;;;;5037902;28;20716;-71
2021/08/03 08:26:55;;;;;;;7.53;6.00;;;16.10;99.90;;;;;;5038359;28;20451;-71
2021/08/03 08:29:21;;;;;;;7.93;5.63;;;16.10;99.90;;;;;;5036617;28;20666;-71
2021/08/03 08:31:47;;;;;;;6.70;5.97;;;16.20;99.90;;;;;;5036573;28;20176;-71
2021/08/03 08:34:13;;;;;;;7.47;6.67;;;16.50;99.90;;;;;;5037647;28;20184;-71
2021/08/03 08:36:39;;;;;;;5.57;5.07;;;17.30;99.90;;;;;;5048600;28;20207;-71
2021/08/03 08:39:06;;;;;;;5.07;4.10;;;18.90;99.90;;;;;;5033324;28;20435;-70
2021/08/03 08:41:33;;;;;;;6.30;4.23;;;20.50;99.90;;;;;;5033801;28;20516;-70
2021/08/03 08:44:00;;;;;;;5.17;3.60;;;21.80;99.90;;;;;;5040806;28;20431;-71
2021/08/03 08:46:26;;;;;;;8.40;3.37;;;22.90;99.90;;;;;;5047206;28;20437;-71
2021/08/03 08:48:52;;;;;;;3.30;3.00;;;23.80;99.90;;;;;;5044524;28;20440;-71
2021/08/03 08:51:17;;;;;;;3.27;2.90;;;24.20;99.90;;;;;;5032841;28;20210;-71
2021/08/03 08:53:43;;;;;;;3.33;2.60;;;24.30;99.90;;;;;;5043619;28;20258;-71
2021/08/03 08:56:08;;;;;;;3.27;2.80;;;24.30;99.90;;;;;;5036970;28;20193;-71
2021/08/03 08:58:35;;;;;;;3.47;2.97;;;23.90;99.90;;;;;;5045994;28;20209;-71
2021/08/03 09:01:01;;;;;;;4.37;2.50;;;23.60;99.90;;;;;;5046216;28;20512;-71
2021/08/03 09:03:26;;;;;;;3.20;2.90;;;23.30;99.90;;;;;;5038757;28;20453;-71
2021/08/03 09:06:01;;;;;;;2.90;2.37;;;23.20;99.90;;;;;;5044224;28;20210;-71
2021/08/03 09:08:35;;;;;;;3.27;2.67;;;23.50;99.90;;;;;;5054085;28;20167;-71
2021/08/03 09:11:06;;;;;;;2.53;2.33;;;24.10;99.90;;;;;;5040383;28;20465;-71
2021/08/03 09:13:50;;;;;;;3.87;2.60;;;24.60;99.90;;;;;;5035900;28;20525;-71
2021/08/03 09:16:16;;;;;;;4.00;2.70;;;24.60;96.90;;;;;;5043161;28;20436;-71
2021/08/03 09:18:44;;;;;;;2.70;2.47;;;24.60;98.00;;;;;;5033978;28;20426;-71
2021/08/03 09:21:27;;;;;;;4.60;3.00;;;24.30;97.20;;;;;;5040150;28;20183;-71
2021/08/03 09:23:58;;;;;;;6.47;3.10;;;24.00;98.20;;;;;;5038314;28;20508;-71
2021/08/03 09:29:20;;;;;;;3.60;3.30;;;23.40;98.50;;;;;;5066487;28;20524;-72
2021/08/03 09:31:56;;;;;;;3.33;3.03;;;23.30;98.00;;;;;;5066372;28;22166;-72
2021/08/03 09:34:22;;;;;;;3.03;2.70;;;23.60;97.60;;;;;;5055150;28;20190;-72
2021/08/03 09:36:57;;;;;;;3.00;2.47;;;24.10;99.50;;;;;;5062944;28;20428;-72
2021/08/03 09:39:44;;;;;;;2.07;1.70;;;24.30;96.00;;;;;;5062008;28;20444;-72
2021/08/03 09:44:54;;;;;;;3.00;2.13;;;23.60;95.90;;;;;;5101448;27;20544;-72
2021/08/03 09:47:21;;;;;;;3.00;2.27;;;22.90;95.90;;;;;;5114958;28;21529;-72
2021/08/03 09:49:50;;;;;;;3.37;2.43;;;22.40;96.10;;;;;;5104512;28;20492;-72
2021/08/03 09:52:18;;;;;;;8.40;2.03;;;22.10;97.80;;;;;;5093931;28;20425;-72
2021/08/03 09:54:44;;;;;;;2.37;2.13;;;21.60;96.90;;;;;;5104295;28;20438;-72
2021/08/03 09:57:21;;;;;;;3.07;2.77;;;21.40;99.60;;;;;;5112732;28;20420;-72
2021/08/03 09:59:48;;;;;;;2.50;2.30;;;21.30;98.40;;;;;;5097571;28;20185;-72
2021/08/03 10:02:17;;;;;;;2.63;2.43;;;21.10;98.40;;;;;;5112324;28;20646;-73
2021/08/03 10:04:44;;;;;;;3.87;2.67;;;20.90;97.90;;;;;;5099344;27;20457;-73
2021/08/03 10:07:10;;;;;;;2.37;2.17;;;21.10;96.90;;;;;;5104058;28;20432;-73
2021/08/03 10:09:37;;;;;;;2.50;2.03;;;21.00;96.70;;;;;;5100507;28;20427;-73
2021/08/03 10:12:03;;;;;;;2.90;2.70;;;21.10;97.30;;;;;;5109736;28;20179;-74
2021/08/03 10:14:29;;;;;;;3.47;2.43;;;21.10;97.20;;;;;;5107646;28;20481;-73
2021/08/03 10:16:55;;;;;;;2.53;1.93;;;21.00;97.60;;;;;;5102530;28;20428;-73
2021/08/03 10:19:24;;;;;;;2.40;2.20;;;20.90;97.20;;;;;;5098648;28;20181;-73
2021/08/03 10:25:06;;;;;;;1.70;1.60;;;20.80;97.80;;;;;;5063434;28;20540;-71
2021/08/03 10:27:53;;;;;;;3.47;2.23;;;20.50;97.20;;;;;;5043767;28;20431;-71
2021/08/03 10:30:35;;;;;;;2.20;2.00;;;20.50;98.40;;;;;;5045306;28;20435;-71
2021/08/03 10:33:12;;;;;;;2.53;2.20;;;20.60;98.30;;;;;;5047123;28;20523;-71
2021/08/03 10:43:41;;;;;;;2.33;2.13;;;20.60;99.10;;;;;;5061935;28;20567;-71
2021/08/03 10:48:43;;;;;;;2.30;2.10;;;20.60;99.90;;;;;;5064876;28;20663;-70
2021/08/03 11:02:28;;;;;;;3.00;2.70;;;19.80;99.90;;;;;;5062790;28;20684;-72
2021/08/03 11:04:55;;;;;;;3.30;3.00;;;19.10;99.90;;;;;;5047285;28;20417;-72
2021/08/03 11:12:49;;;;;;;3.60;3.30;;;18.90;99.90;;;;;;5062361;28;20565;-72
2021/08/03 11:18:37;;;;;;;4.30;3.80;;;18.70;99.90;;;;;;5047932;28;20548;-71
2021/08/03 11:21:04;;;;;;;4.20;3.53;;;18.60;99.90;;;;;;5046847;28;21165;-71
2021/08/03 11:26:47;;;;;;;4.93;3.47;;;18.50;99.90;;;;;;5063499;28;20562;-72
2021/08/03 11:29:15;;;;;;;3.80;3.30;;;18.40;99.90;;;;;;5046561;28;21111;-72
2021/08/03 11:34:32;;;;;;;4.63;3.70;;;18.30;99.90;;;;;;5067295;28;20657;-71
2021/08/03 11:42:35;;;;;;;4.60;3.83;;;18.20;99.90;;;;;;5065123;28;20536;-73
2021/08/03 11:45:06;;;;;;;3.87;3.53;;;18.20;99.90;;;;;;5046741;28;21090;-73
2021/08/03 11:47:53;;;;;;;4.77;4.27;;;18.30;99.90;;;;;;5048692;28;20517;-73
2021/08/03 11:50:39;;;;;;;3.40;3.10;;;18.30;99.90;;;;;;5040611;28;20446;-73
2021/08/03 11:55:45;;;;;;;4.33;3.93;;;18.40;99.90;;;;;;5062752;28;20558;-73
2021/08/03 11:58:11;;;;;;;4.77;4.03;;;18.50;99.90;;;;;;5040287;28;20411;-73
2021/08/03 12:00:38;;;;;;;4.30;3.80;;;18.40;99.90;;;;;;5035564;28;21601;-73
2021/08/03 12:03:04;;;;;;;4.13;3.70;;;18.40;99.90;;;;;;5041578;28;20211;-73
2021/08/03 12:05:32;;;;;;;4.33;3.93;;;18.40;99.90;;;;;;5048109;28;20835;-73
2021/08/03 12:08:01;;;;;;;3.33;3.03;;;18.30;99.90;;;;;;5042591;28;20322;-73
2021/08/03 12:10:30;;;;;;;4.90;4.40;;;18.30;99.90;;;;;;5045007;28;20431;-73
2021/08/03 12:12:56;;;;;;;5.27;4.33;;;18.30;99.90;;;;;;5046563;28;20907;-73
2021/08/03 12:15:23;;;;;;;4.90;3.80;;;18.30;99.90;;;;;;5043302;28;20557;-73
2021/08/03 12:18:01;;;;;;;3.60;3.30;;;18.30;99.90;;;;;;5046996;28;20485;-72
2021/08/03 12:20:37;;;;;;;4.70;3.70;;;18.30;99.90;;;;;;5039850;28;20434;-73
2021/08/03 12:23:09;;;;;;;3.90;3.50;;;18.30;99.90;;;;;;5044663;28;20832;-73
2021/08/03 12:25:49;;;;;;;5.10;4.17;;;18.20;99.90;;;;;;5040247;28;20947;-73
2021/08/03 12:28:34;;;;;;;5.37;3.60;;;18.20;99.90;;;;;;5038723;28;20947;-73
2021/08/03 12:36:49;;;;;;;4.63;3.43;;;18.40;99.90;;;;;;5064318;28;20538;-70
2021/08/03 12:45:11;;;;;;;4.83;4.40;;;19.10;99.90;;;;;;5022014;28;20534;-70
2021/08/03 12:47:50;;;;;;;4.33;3.40;;;19.30;99.90;;;;;;5042774;28;20417;-71
2021/08/03 12:50:16;;;;;;;3.63;3.30;;;19.40;99.90;;;;;;5038796;28;20416;-71
2021/08/03 12:52:51;;;;;;;4.10;3.70;;;19.50;99.90;;;;;;5034554;28;20839;-71
2021/08/03 12:55:44;;;;;;;4.03;3.63;;;19.70;99.90;;;;;;5033870;28;20187;-71
2021/08/03 12:58:10;;;;;;;4.53;3.93;;;19.80;99.90;;;;;;5045962;28;20970;-71
2021/08/03 13:00:38;;;;;;;3.43;2.60;;;20.10;99.90;;;;;;5021596;28;20432;-71
2021/08/03 13:03:07;;;;;;;2.77;2.47;;;20.10;99.90;;;;;;5019014;28;20209;-71
2021/08/03 13:05:33;;;;;;;3.80;3.50;;;20.20;99.90;;;;;;5047936;28;20427;-71
2021/08/03 13:07:59;;;;;;;3.47;3.20;;;20.30;99.90;;;;;;5055104;28;20443;-71
2021/08/03 13:10:25;;;;;;;2.77;2.57;;;20.40;99.90;;;;;;5041369;28;20197;-71
2021/08/03 13:12:51;;;;;;;3.87;2.87;;;20.40;99.90;;;;;;5059823;27;20180;-71
2021/08/03 13:15:18;;;;;;;2.63;2.43;;;20.50;99.90;;;;;;5046799;28;20420;-71
2021/08/03 13:17:43;;;;;;;2.30;2.10;;;20.40;99.90;;;;;;5028573;28;20181;-71
2021/08/03 13:20:10;;;;;;;3.03;2.40;;;20.40;99.90;;;;;;5036214;28;20428;-71
2021/08/03 13:22:36;;;;;;;2.63;2.43;;;20.30;99.90;;;;;;5065089;28;20185;-71
2021/08/03 13:25:03;;;;;;;2.40;2.20;;;20.30;99.90;;;;;;5027414;28;20404;-71
2021/08/03 13:27:28;;;;;;;3.67;2.33;;;20.30;99.90;;;;;;5074515;27;20272;-71
2021/08/03 13:29:54;;;;;;;2.77;2.57;;;20.20;99.90;;;;;;5011092;28;21039;-71
2021/08/03 13:32:19;;;;;;;1.80;1.70;;;20.20;99.90;;;;;;5034568;28;20180;-71
2021/08/03 13:34:45;;;;;;;3.30;3.00;;;20.30;99.90;;;;;;5028289;28;20242;-71
2021/08/03 13:37:10;;;;;;;3.33;2.97;;;20.30;99.90;;;;;;5028810;28;20611;-71
2021/08/03 13:39:36;;;;;;;2.73;2.53;;;20.30;99.90;;;;;;5037339;28;20180;-71
2021/08/03 13:42:02;;;;;;;2.03;1.83;;;20.30;99.90;;;;;;5036420;28;20186;-71
2021/08/03 13:44:27;;;;;;;2.50;2.30;;;20.30;99.90;;;;;;5007238;28;20218;-71
2021/08/03 13:46:53;;;;;;;2.83;1.73;;;20.20;99.90;;;;;;5025290;28;20181;-71
2021/08/03 13:49:18;;;;;;;2.73;2.17;;;20.30;99.90;;;;;;5024172;28;20169;-71
2021/08/03 13:51:44;;;;;;;2.00;1.57;;;20.30;99.90;;;;;;5034501;28;20180;-71
2021/08/03 13:54:10;;;;;;;2.40;2.10;;;20.30;99.90;;;;;;5022106;28;20234;-71
2021/08/03 13:56:35;;;;;;;4.23;2.07;;;20.20;99.90;;;;;;5009751;28;20195;-71
2021/08/03 13:59:02;;;;;;;2.60;2.00;;;20.30;99.90;;;;;;5003410;28;20638;-71
2021/08/03 14:01:28;;;;;;;1.70;1.43;;;20.30;99.90;;;;;;5043320;28;20182;-71
2021/08/03 14:03:54;;;;;;;1.70;1.60;;;20.20;99.90;;;;;;5018214;28;20964;-71
2021/08/03 14:06:20;;;;;;;1.57;1.40;;;20.10;99.90;;;;;;5065301;28;20220;-71
2021/08/03 14:08:46;;;;;;;1.60;1.50;;;19.90;99.90;;;;;;4997626;28;20272;-71